Time;durP1;ratioP1;P1;durP2;ratioP2;P2;SDS_P1;SDS_P2;PMS_P1;PMS_P2;Temp;Humidity;BMP_temperature;BMP_pressure;BME280_temperature;BME280_humidity;BME280_pressure;Samples;Min_cycle;Max_cycle;Signal;HPM_P1;HPM_P2
2022/01/26 00:06:27;;;;;;;15.03;8.07;;;5.20;99.90;;;;;;5060265;28;20248;-71
2022/01/26 00:08:53;;;;;;;15.53;8.90;;;5.10;99.90;;;;;;5062091;28;20707;-71
2022/01/26 00:11:19;;;;;;;19.47;8.97;;;5.20;99.90;;;;;;5036252;28;20211;-71
2022/01/26 00:13:44;;;;;;;19.20;9.73;;;5.10;99.90;;;;;;5038969;28;20696;-72
2022/01/26 00:16:22;;;;;;;17.97;9.43;;;5.10;99.90;;;;;;5029123;28;20230;-71
2022/01/26 00:18:48;;;;;;;16.13;9.10;;;5.20;99.90;;;;;;5051221;28;20240;-71
2022/01/26 00:21:25;;;;;;;23.73;10.10;;;5.20;99.90;;;;;;5041463;28;20244;-71
2022/01/26 00:26:31;;;;;;;15.87;8.80;;;5.20;99.90;;;;;;5039151;28;20684;-71
2022/01/26 00:39:58;;;;;;;21.37;10.40;;;5.20;99.90;;;;;;5030440;28;20187;-72
2022/01/26 00:42:23;;;;;;;20.27;10.00;;;5.20;99.90;;;;;;5039080;28;20188;-71
2022/01/26 00:44:50;;;;;;;21.80;10.63;;;5.20;99.90;;;;;;5042143;28;20222;-71
2022/01/26 00:47:16;;;;;;;32.27;14.20;;;5.20;99.90;;;;;;5041840;28;20247;-71
2022/01/26 00:49:42;;;;;;;20.47;10.07;;;5.30;99.90;;;;;;5038910;28;20207;-71
2022/01/26 00:52:12;;;;;;;27.80;11.03;;;5.20;99.90;;;;;;5041368;28;20280;-71
2022/01/26 00:54:37;;;;;;;20.83;10.67;;;5.20;99.90;;;;;;5030463;28;20190;-71
2022/01/26 00:57:03;;;;;;;21.23;10.43;;;5.20;99.90;;;;;;5038441;28;20204;-71
2022/01/26 00:59:29;;;;;;;21.60;10.83;;;5.20;99.90;;;;;;5039432;28;20207;-71
2022/01/26 01:01:55;;;;;;;23.23;10.70;;;5.10;99.90;;;;;;5041580;28;20223;-71
2022/01/26 01:04:21;;;;;;;30.10;13.40;;;5.20;99.90;;;;;;5044296;28;20659;-71
2022/01/26 01:06:53;;;;;;;22.07;10.47;;;5.20;99.90;;;;;;5042286;28;20192;-72
2022/01/26 01:09:20;;;;;;;22.10;10.50;;;5.20;99.90;;;;;;5024203;28;20235;-71
2022/01/26 01:11:46;;;;;;;22.03;9.87;;;5.20;99.90;;;;;;5041901;28;20598;-71
2022/01/26 01:14:11;;;;;;;19.50;9.83;;;5.20;99.90;;;;;;5031313;28;20212;-71
2022/01/26 01:16:37;;;;;;;19.90;10.07;;;5.20;99.90;;;;;;5044903;28;20215;-71
2022/01/26 01:19:12;;;;;;;24.43;11.10;;;5.20;99.90;;;;;;5045178;28;20199;-72
2022/01/26 01:22:20;;;;;;;21.37;10.33;;;5.20;99.90;;;;;;5042981;28;20209;-71
2022/01/26 01:30:09;;;;;;;23.40;10.77;;;5.20;99.90;;;;;;5033325;28;20261;-71
2022/01/26 01:32:50;;;;;;;20.97;10.03;;;5.10;99.90;;;;;;5043203;28;20637;-71
2022/01/26 01:35:15;;;;;;;20.67;10.07;;;5.10;99.90;;;;;;5035569;28;20203;-71
2022/01/26 01:37:41;;;;;;;18.80;9.73;;;5.20;99.90;;;;;;5044522;28;20229;-71
2022/01/26 01:40:07;;;;;;;18.57;9.33;;;5.10;99.90;;;;;;5044975;28;20187;-72
2022/01/26 01:42:32;;;;;;;19.13;10.53;;;5.10;99.90;;;;;;5035224;28;20263;-71
2022/01/26 01:44:58;;;;;;;19.23;9.53;;;5.10;99.90;;;;;;5044877;28;20298;-71
2022/01/26 01:47:23;;;;;;;21.30;10.13;;;5.10;99.90;;;;;;5034863;28;20211;-71
2022/01/26 01:49:49;;;;;;;20.57;9.97;;;5.00;99.90;;;;;;5043335;28;20212;-71
2022/01/26 01:52:16;;;;;;;19.20;9.70;;;5.00;99.90;;;;;;5044338;28;20225;-72
2022/01/26 01:54:48;;;;;;;19.57;9.73;;;5.00;99.90;;;;;;5050602;28;20645;-71
2022/01/26 01:57:20;;;;;;;16.13;8.77;;;5.00;99.90;;;;;;5039910;28;20303;-71
2022/01/26 01:59:46;;;;;;;19.27;9.53;;;5.00;99.90;;;;;;5032775;28;20680;-71
2022/01/26 02:02:11;;;;;;;22.00;9.47;;;5.00;99.90;;;;;;5040669;28;20219;-71
2022/01/26 02:04:37;;;;;;;21.50;10.03;;;5.00;99.90;;;;;;5043294;28;20216;-71
2022/01/26 02:07:02;;;;;;;20.93;9.93;;;5.00;99.90;;;;;;5044207;28;20187;-72
2022/01/26 02:09:28;;;;;;;22.37;9.67;;;5.00;99.90;;;;;;5043594;28;20656;-71
2022/01/26 02:11:56;;;;;;;20.17;10.07;;;5.00;99.90;;;;;;5040610;28;20218;-71
2022/01/26 02:14:30;;;;;;;15.97;8.20;;;5.00;99.90;;;;;;5040932;28;20208;-71
2022/01/26 02:19:53;;;;;;;18.73;9.70;;;5.00;99.90;;;;;;5043224;28;20257;-71
2022/01/26 03:00:28;;;;;;;20.60;9.57;;;4.90;99.90;;;;;;5043288;28;20687;-71
2022/01/26 03:05:53;;;;;;;18.70;8.80;;;4.90;99.90;;;;;;5016295;28;20207;-71
2022/01/26 03:08:28;;;;;;;18.50;9.53;;;4.80;99.90;;;;;;5037999;28;20203;-71
2022/01/26 03:10:56;;;;;;;18.63;8.50;;;4.80;99.90;;;;;;5031854;28;20219;-71
2022/01/26 03:13:27;;;;;;;23.03;9.70;;;4.90;99.90;;;;;;5039715;28;20241;-71
2022/01/26 03:15:57;;;;;;;20.67;9.63;;;4.90;99.90;;;;;;5043447;28;20167;-72
2022/01/26 03:21:10;;;;;;;19.43;9.90;;;4.90;99.90;;;;;;5039822;28;20700;-74
2022/01/26 03:34:20;;;;;;;21.60;11.17;;;4.80;99.90;;;;;;5040802;28;20769;-71
2022/01/26 03:36:50;;;;;;;25.23;11.20;;;4.90;99.90;;;;;;5034715;28;20175;-71
2022/01/26 03:39:19;;;;;;;23.03;11.17;;;4.90;99.90;;;;;;5042623;28;20211;-71
2022/01/26 03:44:20;;;;;;;29.00;12.27;;;4.80;99.90;;;;;;5039245;28;20219;-71
2022/01/26 03:46:47;;;;;;;28.87;11.40;;;4.80;99.90;;;;;;5013033;28;20688;-73
2022/01/26 03:49:13;;;;;;;24.40;12.27;;;4.80;99.90;;;;;;5038004;28;20211;-71
2022/01/26 03:51:40;;;;;;;27.27;11.77;;;4.80;99.90;;;;;;5039658;28;20210;-71
2022/01/26 03:54:06;;;;;;;25.80;12.27;;;4.80;99.90;;;;;;5013202;28;20212;-71
2022/01/26 03:56:33;;;;;;;23.47;12.90;;;4.90;99.90;;;;;;5047042;28;20826;-71
2022/01/26 03:58:59;;;;;;;24.47;11.23;;;4.80;99.90;;;;;;5012697;28;20203;-71
2022/01/26 04:01:24;;;;;;;23.43;10.73;;;4.80;99.90;;;;;;5021376;28;20276;-71
2022/01/26 04:03:50;;;;;;;29.47;12.83;;;4.80;99.90;;;;;;5032840;28;20587;-73
2022/01/26 04:06:16;;;;;;;25.03;11.50;;;4.80;99.90;;;;;;5035133;28;20173;-73
2022/01/26 04:08:43;;;;;;;25.63;11.10;;;4.80;99.90;;;;;;5015828;28;20676;-74
2022/01/26 04:13:54;;;;;;;26.83;11.97;;;4.80;99.90;;;;;;5038912;28;20214;-74
2022/01/26 04:16:22;;;;;;;27.57;12.97;;;4.80;99.90;;;;;;5038843;28;20208;-74
2022/01/26 04:18:47;;;;;;;24.60;12.37;;;4.80;99.90;;;;;;5029134;28;20263;-72
2022/01/26 04:21:23;;;;;;;25.70;11.70;;;4.70;99.90;;;;;;5038611;28;20228;-72
2022/01/26 04:24:01;;;;;;;25.67;12.20;;;4.70;99.90;;;;;;5013124;28;20700;-71
2022/01/26 04:26:49;;;;;;;26.53;12.77;;;4.70;99.90;;;;;;5039159;28;20215;-71
2022/01/26 04:29:21;;;;;;;26.43;11.53;;;4.70;99.90;;;;;;5032710;28;20207;-74
2022/01/26 04:31:47;;;;;;;29.20;12.10;;;4.70;99.90;;;;;;5034150;28;20211;-75
2022/01/26 04:34:13;;;;;;;23.37;11.93;;;4.70;99.90;;;;;;5044832;28;20276;-71
2022/01/26 04:39:21;;;;;;;24.90;11.47;;;4.70;99.90;;;;;;5044736;28;20218;-71
2022/01/26 04:41:53;;;;;;;24.83;11.80;;;4.70;99.90;;;;;;5027856;28;20210;-71
2022/01/26 04:44:25;;;;;;;26.97;12.10;;;4.70;99.90;;;;;;5046284;28;20647;-71
2022/01/26 04:46:51;;;;;;;24.20;11.90;;;4.70;99.90;;;;;;5034264;28;20214;-71
2022/01/26 04:49:17;;;;;;;25.33;11.73;;;4.70;99.90;;;;;;5042209;28;20226;-71
2022/01/26 04:51:43;;;;;;;24.97;11.27;;;4.60;99.90;;;;;;5019503;28;20194;-71
2022/01/26 04:54:08;;;;;;;25.13;12.20;;;4.60;99.90;;;;;;5036164;28;20207;-71
2022/01/26 04:56:34;;;;;;;24.17;11.70;;;4.60;99.90;;;;;;5019451;28;20588;-71
2022/01/26 04:58:59;;;;;;;25.23;11.17;;;4.60;99.90;;;;;;5045408;28;20714;-71
2022/01/26 05:01:25;;;;;;;25.87;12.33;;;4.60;99.90;;;;;;5044399;28;20219;-71
2022/01/26 05:03:50;;;;;;;23.50;11.00;;;4.60;99.90;;;;;;5039008;28;20234;-71
2022/01/26 05:06:16;;;;;;;20.50;9.50;;;4.60;99.90;;;;;;5035783;28;20183;-71
2022/01/26 05:08:41;;;;;;;20.70;9.27;;;4.50;99.90;;;;;;5044415;28;20314;-71
2022/01/26 05:11:10;;;;;;;19.80;9.23;;;4.50;99.90;;;;;;5045344;28;20231;-71
2022/01/26 05:13:35;;;;;;;24.77;10.20;;;4.60;99.90;;;;;;5043129;28;20215;-71
2022/01/26 05:16:02;;;;;;;19.07;8.70;;;4.60;99.90;;;;;;5015760;28;20172;-72
2022/01/26 05:18:29;;;;;;;17.50;8.57;;;4.60;99.90;;;;;;5041628;28;20224;-71
2022/01/26 05:20:56;;;;;;;17.43;8.23;;;4.50;99.90;;;;;;5015610;28;20214;-71
2022/01/26 05:23:21;;;;;;;17.70;8.20;;;4.50;99.90;;;;;;5041646;28;20302;-71
2022/01/26 05:25:47;;;;;;;15.97;7.60;;;4.40;99.90;;;;;;5045103;28;20289;-71
2022/01/26 05:28:12;;;;;;;11.93;6.27;;;4.40;99.90;;;;;;5043415;28;20213;-71
2022/01/26 05:30:38;;;;;;;14.57;7.33;;;4.40;99.90;;;;;;5041643;28;20203;-71
2022/01/26 05:33:04;;;;;;;13.77;6.70;;;4.40;99.90;;;;;;5015210;28;20688;-72
2022/01/26 05:35:30;;;;;;;16.77;7.20;;;4.40;99.90;;;;;;5042554;28;20209;-72
2022/01/26 05:37:56;;;;;;;14.93;7.77;;;4.40;99.90;;;;;;5040918;28;20654;-72
2022/01/26 05:40:22;;;;;;;15.07;6.80;;;4.30;99.90;;;;;;5041372;28;20295;-72
2022/01/26 05:42:48;;;;;;;14.50;7.47;;;4.30;99.90;;;;;;5045152;28;20170;-72
2022/01/26 05:45:23;;;;;;;15.23;7.83;;;4.30;99.90;;;;;;5043630;28;20305;-72
2022/01/26 05:47:49;;;;;;;17.50;7.60;;;4.30;99.90;;;;;;5036477;28;20211;-72
2022/01/26 05:50:14;;;;;;;14.57;6.93;;;4.20;99.90;;;;;;5019195;28;20699;-72
2022/01/26 05:52:40;;;;;;;16.23;7.50;;;4.20;99.90;;;;;;5050155;28;20209;-72
2022/01/26 05:55:06;;;;;;;19.33;8.37;;;4.30;99.90;;;;;;5044838;28;20544;-72
2022/01/26 05:57:32;;;;;;;17.80;7.87;;;4.30;99.90;;;;;;5042090;28;20183;-72
2022/01/26 05:59:58;;;;;;;17.67;8.53;;;4.30;99.90;;;;;;5040146;28;20208;-72
2022/01/26 06:02:23;;;;;;;13.87;7.60;;;4.40;99.90;;;;;;5072027;23;20237;-77
2022/01/26 06:04:49;;;;;;;21.03;8.80;;;4.40;99.90;;;;;;5059409;28;20223;-78
2022/01/26 06:07:14;;;;;;;21.10;9.47;;;4.40;99.90;;;;;;5060727;28;20407;-77
2022/01/26 06:09:40;;;;;;;24.17;9.77;;;4.30;99.90;;;;;;5063731;28;20182;-77
2022/01/26 06:12:06;;;;;;;20.07;8.53;;;4.30;99.90;;;;;;5063088;28;20756;-77
2022/01/26 06:14:32;;;;;;;19.87;9.20;;;4.30;99.90;;;;;;5063008;28;20232;-77
2022/01/26 06:16:57;;;;;;;24.43;10.03;;;4.30;99.90;;;;;;5059160;28;20523;-76
2022/01/26 06:19:22;;;;;;;19.57;9.60;;;4.30;99.90;;;;;;5059336;28;20203;-77
2022/01/26 06:21:48;;;;;;;22.93;9.47;;;4.30;99.90;;;;;;5061898;28;20201;-75
2022/01/26 06:24:13;;;;;;;25.83;10.40;;;4.30;99.90;;;;;;5058732;28;20566;-75
2022/01/26 06:26:41;;;;;;;25.00;10.40;;;4.30;99.90;;;;;;5069086;28;20201;-76
2022/01/26 06:29:06;;;;;;;26.33;10.53;;;4.30;99.90;;;;;;5058939;28;20594;-76
2022/01/26 06:31:34;;;;;;;24.47;9.80;;;4.30;99.90;;;;;;5060299;28;20286;-76
2022/01/26 06:34:02;;;;;;;25.43;10.50;;;4.30;99.90;;;;;;5062687;28;20552;-76
2022/01/26 06:36:28;;;;;;;27.03;10.20;;;4.30;99.90;;;;;;5063110;28;20594;-76
2022/01/26 06:38:54;;;;;;;26.97;10.83;;;4.30;99.90;;;;;;5058546;28;20698;-76
2022/01/26 06:41:25;;;;;;;24.93;10.70;;;4.20;99.90;;;;;;5060088;28;20818;-76
2022/01/26 06:43:59;;;;;;;27.40;10.90;;;4.30;99.90;;;;;;5060086;28;20210;-76
2022/01/26 06:46:42;;;;;;;26.80;11.50;;;4.30;99.90;;;;;;5060570;28;20210;-76
2022/01/26 06:51:50;;;;;;;26.30;11.43;;;4.30;99.90;;;;;;5061476;28;20697;-76
2022/01/26 06:54:16;;;;;;;26.10;10.70;;;4.30;99.90;;;;;;5058220;28;20214;-76
2022/01/26 06:56:41;;;;;;;27.47;11.97;;;4.30;99.90;;;;;;5059016;28;20202;-75
2022/01/26 06:59:07;;;;;;;28.33;11.93;;;4.30;99.90;;;;;;5058324;28;20281;-76
2022/01/26 07:01:32;;;;;;;26.43;11.57;;;4.30;99.90;;;;;;5067095;28;20244;-77
2022/01/26 07:03:58;;;;;;;28.17;11.17;;;4.30;99.90;;;;;;5060068;28;20228;-76
2022/01/26 07:06:23;;;;;;;26.07;11.70;;;4.30;99.90;;;;;;5060544;28;20183;-74
2022/01/26 07:08:49;;;;;;;23.30;10.77;;;4.30;99.90;;;;;;5062946;28;20195;-75
2022/01/26 07:11:14;;;;;;;25.17;11.37;;;4.20;99.90;;;;;;5062757;28;20211;-75
2022/01/26 07:13:41;;;;;;;28.50;10.77;;;4.30;99.90;;;;;;5061704;28;20260;-75
2022/01/26 07:21:35;;;;;;;22.23;10.83;;;4.30;99.90;;;;;;5061945;28;20741;-76
2022/01/26 07:24:01;;;;;;;26.87;11.60;;;4.20;99.90;;;;;;5064308;28;20211;-76
2022/01/26 07:26:29;;;;;;;31.47;12.13;;;4.20;99.90;;;;;;5066376;28;20211;-77
2022/01/26 07:29:00;;;;;;;27.10;11.40;;;4.20;99.90;;;;;;5057812;28;20206;-76
2022/01/26 07:31:26;;;;;;;29.20;11.20;;;4.20;99.90;;;;;;5058741;28;20217;-76
2022/01/26 07:33:55;;;;;;;24.37;11.13;;;4.20;99.90;;;;;;5062835;28;20177;-75
2022/01/26 07:36:21;;;;;;;28.43;12.07;;;4.30;99.90;;;;;;5063323;28;20182;-76
2022/01/26 07:38:50;;;;;;;30.93;12.13;;;4.30;99.90;;;;;;5062468;28;20209;-76
2022/01/26 07:41:16;;;;;;;31.73;12.07;;;4.30;99.90;;;;;;5062426;28;20214;-76
2022/01/26 07:43:41;;;;;;;28.10;12.33;;;4.30;99.90;;;;;;5070702;28;20211;-76
2022/01/26 07:46:09;;;;;;;26.03;11.33;;;4.20;99.90;;;;;;5062707;28;20182;-76
2022/01/26 07:48:35;;;;;;;23.70;10.87;;;4.30;99.90;;;;;;5060278;28;20182;-76
2022/01/26 07:51:01;;;;;;;26.13;11.83;;;4.30;99.90;;;;;;5058336;28;20210;-77
2022/01/26 07:53:26;;;;;;;31.47;12.03;;;4.30;99.90;;;;;;5066163;28;20301;-76
2022/01/26 07:55:52;;;;;;;29.27;11.47;;;4.30;99.90;;;;;;5063493;28;20214;-76
2022/01/26 07:58:19;;;;;;;24.57;11.17;;;4.40;99.90;;;;;;5062236;28;20298;-76
2022/01/26 08:00:45;;;;;;;26.37;11.20;;;4.40;99.90;;;;;;5058440;28;20175;-76
2022/01/26 08:03:10;;;;;;;27.63;12.40;;;4.30;99.90;;;;;;5058969;28;20227;-75
2022/01/26 08:05:36;;;;;;;26.23;11.20;;;4.30;99.90;;;;;;5057844;28;20213;-76
2022/01/26 08:08:01;;;;;;;27.03;11.83;;;4.40;99.90;;;;;;5058503;28;20360;-76
2022/01/26 08:10:27;;;;;;;30.13;12.87;;;4.30;99.90;;;;;;5059989;28;20695;-76
2022/01/26 08:12:53;;;;;;;31.00;12.57;;;4.40;99.90;;;;;;5062399;28;20226;-75
2022/01/26 08:15:18;;;;;;;26.57;11.00;;;4.40;99.90;;;;;;5065858;28;20194;-76
2022/01/26 08:17:44;;;;;;;26.43;11.23;;;4.30;99.90;;;;;;5063005;28;20206;-76
2022/01/26 08:20:10;;;;;;;29.90;11.30;;;4.30;99.90;;;;;;5062855;28;20650;-76
2022/01/26 08:22:36;;;;;;;27.73;12.30;;;4.30;99.90;;;;;;5068099;28;20242;-77
2022/01/26 08:25:02;;;;;;;30.03;12.60;;;4.30;99.90;;;;;;5061737;28;20751;-78
2022/01/26 08:27:33;;;;;;;27.13;11.70;;;4.30;99.90;;;;;;5062788;28;20193;-78
2022/01/26 08:30:06;;;;;;;29.23;11.73;;;4.30;99.90;;;;;;5064829;28;20207;-77
2022/01/26 08:32:32;;;;;;;26.50;11.77;;;4.40;99.90;;;;;;5064336;28;20583;-76
2022/01/26 08:34:57;;;;;;;29.63;11.60;;;4.30;99.90;;;;;;5062820;28;20207;-76
2022/01/26 08:37:23;;;;;;;27.87;11.97;;;4.30;99.90;;;;;;5061200;28;20208;-76
2022/01/26 08:39:48;;;;;;;26.77;11.47;;;4.40;99.90;;;;;;5066569;28;20257;-76
2022/01/26 08:42:14;;;;;;;25.00;10.37;;;4.50;99.90;;;;;;5058278;28;20695;-76
2022/01/26 08:44:39;;;;;;;26.20;10.87;;;4.60;99.90;;;;;;5064892;28;20226;-76
2022/01/26 08:47:05;;;;;;;25.10;11.07;;;4.50;99.90;;;;;;5065575;28;20620;-75
2022/01/26 08:49:31;;;;;;;26.40;12.33;;;4.50;99.90;;;;;;5062914;28;20247;-75
2022/01/26 08:51:57;;;;;;;23.93;10.83;;;4.50;99.90;;;;;;5065832;28;20281;-76
2022/01/26 08:54:23;;;;;;;24.33;11.23;;;4.70;99.90;;;;;;5065947;28;20167;-75
2022/01/26 08:56:53;;;;;;;23.13;9.83;;;4.60;99.90;;;;;;5060897;28;20643;-76
2022/01/26 08:59:20;;;;;;;27.73;11.47;;;4.60;99.90;;;;;;5060437;28;20215;-76
2022/01/26 09:01:46;;;;;;;31.73;11.07;;;4.60;99.90;;;;;;5065401;28;20215;-76
2022/01/26 09:04:12;;;;;;;19.93;9.83;;;4.60;99.90;;;;;;5065328;28;20305;-75
2022/01/26 09:06:51;;;;;;;20.30;9.90;;;4.60;99.90;;;;;;5063663;28;20179;-76
2022/01/26 09:09:19;;;;;;;22.67;10.93;;;4.60;99.90;;;;;;5062067;28;20272;-76
2022/01/26 09:11:46;;;;;;;20.67;9.17;;;4.70;99.90;;;;;;5063966;28;20214;-76
2022/01/26 09:14:17;;;;;;;20.57;10.50;;;4.70;99.90;;;;;;5065433;28;20285;-77
2022/01/26 09:16:42;;;;;;;21.03;9.63;;;4.70;99.90;;;;;;5062379;28;20200;-77
2022/01/26 09:19:25;;;;;;;19.53;9.10;;;4.70;99.90;;;;;;5061613;28;20183;-77
2022/01/26 09:21:50;;;;;;;18.00;8.83;;;4.80;99.90;;;;;;5064254;28;20221;-76
2022/01/26 09:24:16;;;;;;;20.50;9.73;;;4.70;99.90;;;;;;5064696;28;20234;-77
2022/01/26 09:26:41;;;;;;;19.20;8.87;;;4.80;99.90;;;;;;5062184;28;20200;-77
2022/01/26 09:29:07;;;;;;;16.93;8.60;;;4.70;99.90;;;;;;5061273;28;20210;-78
2022/01/26 09:31:32;;;;;;;16.97;8.47;;;4.60;99.90;;;;;;5063186;28;20268;-77
2022/01/26 09:33:58;;;;;;;22.33;9.60;;;4.50;99.90;;;;;;5063758;28;20210;-77
2022/01/26 09:36:23;;;;;;;14.23;8.10;;;4.50;99.90;;;;;;5064865;28;20593;-77
2022/01/26 09:38:49;;;;;;;14.80;8.17;;;4.60;99.90;;;;;;5059990;28;20213;-78
2022/01/26 09:41:15;;;;;;;16.10;8.00;;;4.50;99.90;;;;;;5061438;28;20214;-77
2022/01/26 09:43:42;;;;;;;20.20;9.03;;;4.60;99.90;;;;;;5063904;28;20268;-77
2022/01/26 09:46:11;;;;;;;18.50;8.93;;;4.60;99.90;;;;;;5063787;28;20646;-77
2022/01/26 09:48:38;;;;;;;19.43;8.97;;;4.70;99.90;;;;;;5061129;28;20179;-77
2022/01/26 09:51:04;;;;;;;16.57;8.03;;;4.70;99.90;;;;;;5061532;28;20272;-76
2022/01/26 09:53:32;;;;;;;16.30;7.87;;;4.70;99.90;;;;;;5060898;28;20244;-79
2022/01/26 09:55:58;;;;;;;17.33;9.07;;;4.60;99.90;;;;;;5061343;28;20212;-77
2022/01/26 09:58:24;;;;;;;19.90;9.50;;;4.60;99.90;;;;;;5061521;28;20232;-78
2022/01/26 10:01:00;;;;;;;18.33;9.30;;;4.70;99.90;;;;;;5064784;28;20171;-76
2022/01/26 10:03:31;;;;;;;18.13;8.53;;;4.70;99.90;;;;;;5062394;28;20293;-77
2022/01/26 10:05:57;;;;;;;21.53;9.07;;;4.70;99.90;;;;;;5061376;28;20213;-77
2022/01/26 10:08:51;;;;;;;19.67;9.67;;;4.70;99.90;;;;;;5061020;28;20594;-77
2022/01/26 10:18:59;;;;;;;16.53;7.93;;;4.70;99.90;;;;;;5064101;28;20217;-76
2022/01/26 10:21:25;;;;;;;16.93;7.90;;;4.70;99.90;;;;;;5061642;28;20569;-76
2022/01/26 10:23:57;;;;;;;18.73;8.47;;;4.60;99.90;;;;;;5063859;28;20588;-76
2022/01/26 10:26:22;;;;;;;17.47;8.43;;;4.70;99.90;;;;;;5063938;28;20221;-77
2022/01/26 10:28:59;;;;;;;15.67;7.83;;;4.70;99.90;;;;;;5060274;28;20208;-77
2022/01/26 10:31:27;;;;;;;15.13;8.10;;;4.80;99.90;;;;;;5059603;28;20211;-76
2022/01/26 10:34:04;;;;;;;18.10;8.20;;;5.00;99.90;;;;;;5063828;28;20237;-76
2022/01/26 10:36:44;;;;;;;13.77;8.43;;;5.00;99.90;;;;;;5060751;28;20559;-75
2022/01/26 10:39:22;;;;;;;18.13;8.27;;;5.00;99.90;;;;;;5059586;28;20593;-76
2022/01/26 10:41:50;;;;;;;17.63;8.13;;;5.00;99.90;;;;;;5060236;28;20702;-76
2022/01/26 10:44:17;;;;;;;15.23;8.03;;;4.90;99.90;;;;;;5059890;28;20222;-77
2022/01/26 10:46:44;;;;;;;17.33;8.33;;;5.00;99.90;;;;;;5063440;28;20251;-76
2022/01/26 10:57:00;;;;;;;14.67;7.23;;;5.30;99.90;;;;;;5063572;28;20715;-77
2022/01/26 10:59:26;;;;;;;10.40;6.23;;;5.30;99.90;;;;;;5060882;28;20301;-77
2022/01/26 11:01:52;;;;;;;12.13;6.77;;;5.40;99.90;;;;;;5059522;28;20226;-77
2022/01/26 11:04:18;;;;;;;8.73;5.43;;;5.30;99.90;;;;;;5058384;28;20223;-77
2022/01/26 11:06:50;;;;;;;9.53;5.83;;;5.30;99.90;;;;;;5063429;28;20259;-77
2022/01/26 11:09:20;;;;;;;10.53;5.80;;;5.30;99.90;;;;;;5062497;28;20581;-77
2022/01/26 11:11:46;;;;;;;12.37;5.97;;;5.30;99.90;;;;;;5059717;28;20231;-77
2022/01/26 11:14:21;;;;;;;10.47;5.07;;;5.20;99.90;;;;;;5060049;28;20694;-77
2022/01/26 11:16:53;;;;;;;8.83;5.10;;;5.10;99.90;;;;;;5063415;28;20210;-76
2022/01/26 11:19:19;;;;;;;13.37;7.63;;;5.00;99.90;;;;;;5061408;28;20685;-77
2022/01/26 11:21:45;;;;;;;10.63;5.20;;;5.00;99.90;;;;;;5060454;28;20199;-77
2022/01/26 11:24:18;;;;;;;9.67;5.33;;;5.00;99.90;;;;;;5062870;28;20229;-77
2022/01/26 11:26:45;;;;;;;7.73;4.30;;;5.00;99.90;;;;;;5059513;28;20293;-77
2022/01/26 11:29:24;;;;;;;9.73;4.47;;;4.80;99.90;;;;;;5059143;28;20222;-77
2022/01/26 11:32:13;;;;;;;8.00;3.73;;;4.80;99.90;;;;;;5059531;28;20221;-76
2022/01/26 11:34:40;;;;;;;9.90;5.23;;;4.70;99.90;;;;;;5060337;28;20222;-78
2022/01/26 11:37:13;;;;;;;10.47;5.80;;;4.70;99.90;;;;;;5062829;28;20274;-77
2022/01/26 11:45:03;;;;;;;12.60;6.23;;;4.80;99.90;;;;;;5051060;28;20307;-78
2022/01/26 11:45:17;;;;;;;11.73;5.63;;;4.70;99.90;;;;;;5059098;28;20211;-78
2022/01/26 11:47:57;;;;;;;12.17;6.97;;;4.50;99.90;;;;;;5058320;28;20973;-80
2022/01/26 11:50:24;;;;;;;12.73;6.23;;;4.40;99.90;;;;;;5051263;28;20211;-77
2022/01/26 11:53:05;;;;;;;13.27;6.53;;;4.50;99.90;;;;;;5064890;28;20229;-78
2022/01/26 11:55:35;;;;;;;12.30;6.53;;;4.40;99.90;;;;;;5059327;28;20628;-77
2022/01/26 11:58:28;;;;;;;15.33;7.10;;;4.40;99.90;;;;;;5061994;28;20185;-78
2022/01/26 12:01:24;;;;;;;16.00;7.23;;;4.40;99.90;;;;;;5058548;28;20593;-76
2022/01/26 12:04:06;;;;;;;12.97;5.97;;;4.40;99.90;;;;;;5082373;23;20227;-73
2022/01/26 12:06:36;;;;;;;15.87;7.40;;;4.40;99.90;;;;;;5081178;28;20214;-73
2022/01/26 12:09:04;;;;;;;12.27;6.70;;;4.40;99.90;;;;;;5082463;28;20206;-74
2022/01/26 12:11:30;;;;;;;13.10;6.07;;;4.40;99.90;;;;;;5063392;28;20629;-74
2022/01/26 12:14:04;;;;;;;15.00;6.13;;;4.50;99.90;;;;;;5061127;28;20217;-73
2022/01/26 12:16:40;;;;;;;13.93;7.80;;;4.40;99.90;;;;;;5080324;28;20211;-74
2022/01/26 12:33:27;;;;;;;14.47;6.80;;;4.20;99.90;;;;;;5079080;28;20583;-74
2022/01/26 12:35:58;;;;;;;14.63;7.47;;;4.20;99.90;;;;;;5079212;28;20702;-74
2022/01/26 12:38:39;;;;;;;17.67;8.07;;;4.20;99.90;;;;;;5079561;28;20340;-74
2022/01/26 12:43:49;;;;;;;14.10;7.13;;;4.40;99.90;;;;;;5078469;28;20621;-74
2022/01/26 12:46:17;;;;;;;20.17;9.43;;;4.50;99.90;;;;;;5079256;28;20207;-74
2022/01/26 12:48:52;;;;;;;16.40;7.00;;;4.50;99.90;;;;;;5081904;28;20646;-74
2022/01/26 12:51:17;;;;;;;13.57;6.20;;;4.50;99.90;;;;;;5081925;28;20213;-74
2022/01/26 12:53:44;;;;;;;12.80;5.87;;;4.40;99.90;;;;;;5081546;28;20217;-74
2022/01/26 12:56:12;;;;;;;12.70;5.97;;;4.30;99.90;;;;;;5082107;28;20237;-74
2022/01/26 12:58:40;;;;;;;12.90;6.43;;;4.30;99.90;;;;;;5079281;28;20221;-74
2022/01/26 13:01:11;;;;;;;13.10;6.73;;;4.20;99.90;;;;;;5082373;28;20192;-74
2022/01/26 13:03:38;;;;;;;16.07;7.83;;;4.30;99.90;;;;;;5066333;28;20693;-73
2022/01/26 13:06:25;;;;;;;18.40;8.50;;;4.20;99.90;;;;;;5086096;28;20576;-73
2022/01/26 13:08:53;;;;;;;15.27;7.77;;;4.20;99.90;;;;;;5085339;28;20199;-74
2022/01/26 13:11:31;;;;;;;15.93;6.53;;;4.20;99.90;;;;;;5067984;28;20364;-74
2022/01/26 13:14:11;;;;;;;13.43;6.40;;;4.20;99.90;;;;;;5085908;28;20206;-73
2022/01/26 13:16:38;;;;;;;12.47;6.33;;;4.20;99.90;;;;;;5083343;28;20215;-73
2022/01/26 13:26:39;;;;;;;15.53;6.70;;;4.10;99.90;;;;;;5083307;28;20595;-74
2022/01/26 13:29:20;;;;;;;18.00;7.57;;;4.10;99.90;;;;;;5085060;28;20578;-72
2022/01/26 13:37:19;;;;;;;22.97;9.63;;;3.80;99.90;;;;;;5086070;28;20657;-73
2022/01/26 13:50:17;;;;;;;31.20;10.83;;;3.90;99.90;;;;;;5082009;28;20214;-73
2022/01/26 13:52:53;;;;;;;31.00;11.93;;;3.90;99.90;;;;;;5088268;28;20267;-73
2022/01/26 13:55:43;;;;;;;29.83;10.77;;;3.90;99.90;;;;;;5081925;28;20205;-73
2022/01/26 14:00:55;;;;;;;30.90;10.97;;;3.90;99.90;;;;;;5081781;28;20170;-73
2022/01/26 14:03:24;;;;;;;28.13;10.60;;;3.90;99.90;;;;;;5062658;28;20634;-73
2022/01/26 14:05:49;;;;;;;26.90;10.13;;;3.90;99.90;;;;;;5066869;28;20239;-73
2022/01/26 14:08:15;;;;;;;25.97;10.30;;;3.90;99.90;;;;;;5066604;28;20241;-73
2022/01/26 14:10:44;;;;;;;26.60;10.83;;;3.90;99.90;;;;;;5081762;28;20693;-74
2022/01/26 14:13:09;;;;;;;30.07;11.43;;;3.90;99.90;;;;;;5081097;28;20206;-74
2022/01/26 14:15:40;;;;;;;30.23;10.97;;;3.80;99.90;;;;;;5065632;28;20178;-74
2022/01/26 14:18:36;;;;;;;28.57;10.10;;;3.70;99.90;;;;;;5084500;28;20753;-74
2022/01/26 14:21:21;;;;;;;29.90;11.17;;;3.60;99.90;;;;;;5082726;28;20209;-74
2022/01/26 14:23:57;;;;;;;28.27;10.10;;;3.60;99.90;;;;;;5084006;28;20206;-74
2022/01/26 14:26:26;;;;;;;28.00;10.37;;;3.60;99.90;;;;;;5084850;28;20214;-74
2022/01/26 14:28:51;;;;;;;26.43;9.80;;;3.60;99.90;;;;;;5080922;28;20235;-74
2022/01/26 14:36:29;;;;;;;23.80;8.33;;;3.70;99.90;;;;;;5084800;28;20294;-74
2022/01/26 14:55:29;;;;;;;33.77;12.27;;;3.70;99.90;;;;;;5084522;28;20607;-74
2022/01/26 15:01:11;;;;;;;29.70;12.60;;;3.60;99.90;;;;;;5087206;28;20186;-74
2022/01/26 15:30:33;;;;;;;36.80;13.10;;;3.60;99.90;;;;;;5080001;28;20217;-74
2022/01/26 15:33:23;;;;;;;38.17;12.23;;;3.60;99.90;;;;;;5067651;28;20212;-74
2022/01/26 15:40:01;;;;;;;35.67;12.77;;;3.60;99.90;;;;;;5079693;28;20207;-74
2022/01/26 15:41:53;;;;;;;37.40;13.83;;;3.50;99.90;;;;;;5082876;28;20763;-72
2022/01/26 15:44:37;;;;;;;40.47;14.27;;;3.50;99.90;;;;;;5079430;28;20231;-72
2022/01/26 15:50:07;;;;;;;33.77;13.23;;;3.50;99.90;;;;;;5083707;28;20262;-74
2022/01/26 15:58:22;;;;;;;35.67;14.83;;;3.40;99.90;;;;;;5078954;28;20201;-74
2022/01/26 16:06:40;;;;;;;39.47;15.37;;;3.50;99.90;;;;;;5079860;28;20272;-75
2022/01/26 16:26:22;;;;;;;49.83;18.60;;;3.50;99.90;;;;;;5061812;28;20229;-72
2022/01/26 17:47:10;;;;;;;86.40;31.23;;;3.30;99.90;;;;;;5081621;28;20585;-71
2022/01/26 18:07:10;;;;;;;92.50;32.27;;;3.50;99.90;;;;;;5062452;28;20233;-76
2022/01/26 18:17:19;;;;;;;86.03;32.47;;;3.60;99.90;;;;;;5073332;28;20217;-76
2022/01/26 18:49:11;;;;;;;91.40;33.07;;;3.50;99.90;;;;;;5073025;28;20244;-77
2022/01/26 18:49:40;;;;;;;82.20;31.70;;;3.50;99.90;;;;;;5071982;28;20206;-77
2022/01/26 18:52:07;;;;;;;96.37;32.73;;;3.60;99.90;;;;;;5069800;28;20185;-77
2022/01/26 18:54:36;;;;;;;96.50;32.40;;;3.50;99.90;;;;;;5073039;28;20203;-77
2022/01/26 18:57:07;;;;;;;79.03;29.93;;;3.50;99.90;;;;;;5072488;28;20216;-77
2022/01/26 18:59:32;;;;;;;87.60;32.37;;;3.50;99.90;;;;;;5072715;28;20234;-77
2022/01/26 19:01:59;;;;;;;91.67;32.27;;;3.40;99.90;;;;;;5055830;28;20212;-78
2022/01/26 19:04:42;;;;;;;98.17;31.57;;;3.50;99.90;;;;;;5054674;28;20232;-79
2022/01/26 19:07:07;;;;;;;93.50;31.43;;;3.50;99.90;;;;;;5056109;28;20261;-77
2022/01/26 19:09:38;;;;;;;88.43;32.80;;;3.50;99.90;;;;;;5073450;28;20209;-77